Sella Ness, United Kingdom
Current Conditions -  °F | °C
As of 10:20 PM on Saturday 25 Oct 2014 (Local Time) from EGPM Reporting Station
Broken Clouds Broken Clouds  
Wind Chill: 39°   Ceiling: 3800
Heat Index: 46°   Visibility: 6mi
Dew Point: 43°   Wind: 18mph
Humidity: 87%   Direction: 230°SW
Pressure: 29.23"   Gusts: NA
Location:  60.45°N, 1.27°W
Report Text: EGPM 252120Z AUTO 23016KT 9999 FEW022/// BKN038/// 08/06 Q0990
Loading
Personal Weather Stations






























Interactive Weather Map
Tropical Storm Tracking
New forecast layout! Learn more

10-Day Weather Forecast

Advertisements
Track Severe Weather on mobile